sensor_id;sensor_type;location;lat;lon;timestamp;P1;durP1;ratioP1;P2;durP2;ratioP2
3249;SDS011;1637;42.020;23.992;2023-07-20T00:02:21;15.33;;;7.50;;
3249;SDS011;1637;42.020;23.992;2023-07-20T00:04:50;7.97;;;6.10;;
3249;SDS011;1637;42.020;23.992;2023-07-20T00:07:16;13.33;;;6.50;;
3249;SDS011;1637;42.020;23.992;2023-07-20T00:09:43;9.83;;;7.23;;
3249;SDS011;1637;42.020;23.992;2023-07-20T00:12:10;12.93;;;6.90;;
3249;SDS011;1637;42.020;23.992;2023-07-20T00:14:37;7.87;;;6.53;;
3249;SDS011;1637;42.020;23.992;2023-07-20T00:17:04;8.87;;;7.10;;
3249;SDS011;1637;42.020;23.992;2023-07-20T00:19:31;7.67;;;6.40;;
3249;SDS011;1637;42.020;23.992;2023-07-20T00:22:01;11.33;;;8.10;;
3249;SDS011;1637;42.020;23.992;2023-07-20T00:24:30;7.43;;;6.30;;
3249;SDS011;1637;42.020;23.992;2023-07-20T00:26:57;10.17;;;7.23;;
3249;SDS011;1637;42.020;23.992;2023-07-20T00:29:26;16.53;;;7.03;;
3249;SDS011;1637;42.020;23.992;2023-07-20T00:31:52;11.47;;;7.30;;
3249;SDS011;1637;42.020;23.992;2023-07-20T00:34:19;10.03;;;7.40;;
3249;SDS011;1637;42.020;23.992;2023-07-20T00:36:46;8.90;;;7.10;;
3249;SDS011;1637;42.020;23.992;2023-07-20T00:39:15;12.00;;;6.77;;
3249;SDS011;1637;42.020;23.992;2023-07-20T00:41:42;11.23;;;8.90;;
3249;SDS011;1637;42.020;23.992;2023-07-20T00:44:09;15.03;;;9.37;;
3249;SDS011;1637;42.020;23.992;2023-07-20T00:46:36;15.90;;;10.57;;
3249;SDS011;1637;42.020;23.992;2023-07-20T00:49:03;15.77;;;10.20;;
3249;SDS011;1637;42.020;23.992;2023-07-20T00:51:31;12.87;;;9.17;;
3249;SDS011;1637;42.020;23.992;2023-07-20T00:53:58;14.10;;;7.80;;
3249;SDS011;1637;42.020;23.992;2023-07-20T00:56:26;11.50;;;6.73;;
3249;SDS011;1637;42.020;23.992;2023-07-20T00:58:53;8.77;;;6.97;;
3249;SDS011;1637;42.020;23.992;2023-07-20T01:01:21;9.63;;;6.83;;
3249;SDS011;1637;42.020;23.992;2023-07-20T01:03:48;10.93;;;5.93;;
3249;SDS011;1637;42.020;23.992;2023-07-20T01:06:18;11.37;;;7.20;;
3249;SDS011;1637;42.020;23.992;2023-07-20T01:08:56;8.57;;;7.13;;
3249;SDS011;1637;42.020;23.992;2023-07-20T01:11:31;10.13;;;7.50;;
3249;SDS011;1637;42.020;23.992;2023-07-20T01:14:04;11.23;;;7.27;;
3249;SDS011;1637;42.020;23.992;2023-07-20T01:16:32;8.07;;;7.07;;
3249;SDS011;1637;42.020;23.992;2023-07-20T01:18:59;10.70;;;7.27;;
3249;SDS011;1637;42.020;23.992;2023-07-20T01:21:31;8.43;;;6.60;;
3249;SDS011;1637;42.020;23.992;2023-07-20T01:24:15;20.97;;;7.57;;
3249;SDS011;1637;42.020;23.992;2023-07-20T01:27:21;9.57;;;7.53;;
3249;SDS011;1637;42.020;23.992;2023-07-20T01:30:14;9.93;;;7.33;;
3249;SDS011;1637;42.020;23.992;2023-07-20T01:32:53;9.00;;;7.13;;
3249;SDS011;1637;42.020;23.992;2023-07-20T01:35:21;9.37;;;6.60;;
3249;SDS011;1637;42.020;23.992;2023-07-20T01:37:53;10.63;;;7.40;;
3249;SDS011;1637;42.020;23.992;2023-07-20T01:40:21;12.30;;;7.63;;
3249;SDS011;1637;42.020;23.992;2023-07-20T01:42:50;11.23;;;7.20;;
3249;SDS011;1637;42.020;23.992;2023-07-20T01:45:17;10.43;;;6.80;;
3249;SDS011;1637;42.020;23.992;2023-07-20T01:47:44;12.60;;;7.23;;
3249;SDS011;1637;42.020;23.992;2023-07-20T01:50:12;12.43;;;8.47;;
3249;SDS011;1637;42.020;23.992;2023-07-20T01:52:39;10.23;;;6.57;;
3249;SDS011;1637;42.020;23.992;2023-07-20T01:55:06;8.50;;;6.53;;
3249;SDS011;1637;42.020;23.992;2023-07-20T01:57:34;11.30;;;7.57;;
3249;SDS011;1637;42.020;23.992;2023-07-20T02:00:01;10.07;;;7.70;;
3249;SDS011;1637;42.020;23.992;2023-07-20T02:02:28;8.40;;;6.83;;
3249;SDS011;1637;42.020;23.992;2023-07-20T02:04:54;10.80;;;7.20;;
3249;SDS011;1637;42.020;23.992;2023-07-20T02:07:23;12.87;;;7.97;;
3249;SDS011;1637;42.020;23.992;2023-07-20T02:09:50;10.13;;;7.40;;
3249;SDS011;1637;42.020;23.992;2023-07-20T02:12:17;10.50;;;7.37;;
3249;SDS011;1637;42.020;23.992;2023-07-20T02:14:44;12.00;;;7.63;;
3249;SDS011;1637;42.020;23.992;2023-07-20T02:17:11;9.10;;;6.83;;
3249;SDS011;1637;42.020;23.992;2023-07-20T02:19:38;10.53;;;6.80;;
3249;SDS011;1637;42.020;23.992;2023-07-20T02:22:06;13.87;;;8.10;;
3249;SDS011;1637;42.020;23.992;2023-07-20T02:24:34;9.50;;;6.87;;
3249;SDS011;1637;42.020;23.992;2023-07-20T02:27:01;12.83;;;7.63;;
3249;SDS011;1637;42.020;23.992;2023-07-20T02:29:28;8.83;;;7.20;;
3249;SDS011;1637;42.020;23.992;2023-07-20T02:31:55;9.53;;;7.80;;
3249;SDS011;1637;42.020;23.992;2023-07-20T02:34:22;9.03;;;6.50;;
3249;SDS011;1637;42.020;23.992;2023-07-20T02:36:49;16.13;;;8.10;;
3249;SDS011;1637;42.020;23.992;2023-07-20T02:39:16;10.17;;;7.40;;
3249;SDS011;1637;42.020;23.992;2023-07-20T02:41:44;7.43;;;6.00;;
3249;SDS011;1637;42.020;23.992;2023-07-20T02:44:11;9.70;;;6.90;;
3249;SDS011;1637;42.020;23.992;2023-07-20T02:46:37;11.63;;;8.50;;
3249;SDS011;1637;42.020;23.992;2023-07-20T02:49:04;10.03;;;7.23;;
3249;SDS011;1637;42.020;23.992;2023-07-20T02:51:31;11.10;;;8.00;;
3249;SDS011;1637;42.020;23.992;2023-07-20T02:53:58;9.17;;;7.50;;
3249;SDS011;1637;42.020;23.992;2023-07-20T02:56:25;11.10;;;7.70;;
3249;SDS011;1637;42.020;23.992;2023-07-20T02:58:53;11.20;;;7.63;;
3249;SDS011;1637;42.020;23.992;2023-07-20T03:01:20;10.07;;;7.60;;
3249;SDS011;1637;42.020;23.992;2023-07-20T03:03:48;13.27;;;7.80;;
3249;SDS011;1637;42.020;23.992;2023-07-20T03:06:15;11.73;;;8.00;;
3249;SDS011;1637;42.020;23.992;2023-07-20T03:08:42;12.57;;;9.23;;
3249;SDS011;1637;42.020;23.992;2023-07-20T03:11:12;13.63;;;7.83;;
3249;SDS011;1637;42.020;23.992;2023-07-20T03:13:40;12.53;;;8.07;;
3249;SDS011;1637;42.020;23.992;2023-07-20T03:16:08;12.80;;;8.10;;
3249;SDS011;1637;42.020;23.992;2023-07-20T03:18:36;11.60;;;8.10;;
3249;SDS011;1637;42.020;23.992;2023-07-20T03:21:03;10.73;;;8.17;;
3249;SDS011;1637;42.020;23.992;2023-07-20T03:23:30;13.47;;;7.90;;
3249;SDS011;1637;42.020;23.992;2023-07-20T03:25:57;11.03;;;7.73;;
3249;SDS011;1637;42.020;23.992;2023-07-20T03:28:23;11.77;;;8.10;;
3249;SDS011;1637;42.020;23.992;2023-07-20T03:30:52;11.90;;;8.00;;
3249;SDS011;1637;42.020;23.992;2023-07-20T03:33:21;14.57;;;8.10;;
3249;SDS011;1637;42.020;23.992;2023-07-20T03:35:48;13.37;;;8.20;;
3249;SDS011;1637;42.020;23.992;2023-07-20T03:38:15;13.57;;;8.23;;
3249;SDS011;1637;42.020;23.992;2023-07-20T03:40:48;16.60;;;8.40;;
3249;SDS011;1637;42.020;23.992;2023-07-20T03:43:16;9.27;;;7.43;;
3249;SDS011;1637;42.020;23.992;2023-07-20T03:45:43;11.20;;;7.97;;
3249;SDS011;1637;42.020;23.992;2023-07-20T03:48:10;15.20;;;6.73;;
3249;SDS011;1637;42.020;23.992;2023-07-20T03:50:38;12.73;;;8.17;;
3249;SDS011;1637;42.020;23.992;2023-07-20T03:53:05;11.17;;;7.87;;
3249;SDS011;1637;42.020;23.992;2023-07-20T03:55:32;11.40;;;7.80;;
3249;SDS011;1637;42.020;23.992;2023-07-20T03:57:59;9.57;;;7.00;;
3249;SDS011;1637;42.020;23.992;2023-07-20T04:00:26;15.30;;;7.90;;
3249;SDS011;1637;42.020;23.992;2023-07-20T04:02:54;13.40;;;7.37;;
3249;SDS011;1637;42.020;23.992;2023-07-20T04:05:20;9.23;;;7.90;;
3249;SDS011;1637;42.020;23.992;2023-07-20T04:07:49;12.63;;;7.67;;
3249;SDS011;1637;42.020;23.992;2023-07-20T04:10:16;11.07;;;8.07;;
3249;SDS011;1637;42.020;23.992;2023-07-20T04:12:43;11.53;;;8.20;;
3249;SDS011;1637;42.020;23.992;2023-07-20T04:15:10;9.60;;;8.47;;
3249;SDS011;1637;42.020;23.992;2023-07-20T04:17:38;11.67;;;7.97;;
3249;SDS011;1637;42.020;23.992;2023-07-20T04:20:06;11.23;;;8.40;;
3249;SDS011;1637;42.020;23.992;2023-07-20T04:22:33;13.70;;;9.50;;
3249;SDS011;1637;42.020;23.992;2023-07-20T04:25:02;14.93;;;10.43;;
3249;SDS011;1637;42.020;23.992;2023-07-20T04:27:29;25.43;;;12.47;;
3249;SDS011;1637;42.020;23.992;2023-07-20T04:29:56;34.73;;;15.93;;
3249;SDS011;1637;42.020;23.992;2023-07-20T04:32:24;26.33;;;15.73;;
3249;SDS011;1637;42.020;23.992;2023-07-20T04:34:51;27.43;;;15.27;;
3249;SDS011;1637;42.020;23.992;2023-07-20T04:37:18;29.07;;;17.30;;
3249;SDS011;1637;42.020;23.992;2023-07-20T04:39:45;28.07;;;17.00;;
3249;SDS011;1637;42.020;23.992;2023-07-20T04:42:13;34.93;;;16.60;;
3249;SDS011;1637;42.020;23.992;2023-07-20T04:44:40;35.70;;;15.60;;
3249;SDS011;1637;42.020;23.992;2023-07-20T04:47:07;25.00;;;14.90;;
3249;SDS011;1637;42.020;23.992;2023-07-20T04:49:34;26.43;;;17.03;;
3249;SDS011;1637;42.020;23.992;2023-07-20T04:52:01;25.17;;;13.40;;
3249;SDS011;1637;42.020;23.992;2023-07-20T04:54:28;37.17;;;14.27;;
3249;SDS011;1637;42.020;23.992;2023-07-20T04:56:55;20.20;;;13.90;;
3249;SDS011;1637;42.020;23.992;2023-07-20T04:59:23;23.80;;;15.23;;
3249;SDS011;1637;42.020;23.992;2023-07-20T05:01:50;56.43;;;39.50;;
3249;SDS011;1637;42.020;23.992;2023-07-20T05:04:17;30.40;;;14.63;;
3249;SDS011;1637;42.020;23.992;2023-07-20T05:06:44;20.20;;;12.67;;
3249;SDS011;1637;42.020;23.992;2023-07-20T05:09:11;24.00;;;11.70;;
3249;SDS011;1637;42.020;23.992;2023-07-20T05:11:38;9.10;;;7.20;;
3249;SDS011;1637;42.020;23.992;2023-07-20T05:14:05;9.90;;;7.73;;
3249;SDS011;1637;42.020;23.992;2023-07-20T05:16:33;11.23;;;7.87;;
3249;SDS011;1637;42.020;23.992;2023-07-20T05:19:00;12.23;;;6.90;;
3249;SDS011;1637;42.020;23.992;2023-07-20T05:21:27;12.00;;;8.23;;
3249;SDS011;1637;42.020;23.992;2023-07-20T05:23:53;25.27;;;8.80;;
3249;SDS011;1637;42.020;23.992;2023-07-20T05:26:20;12.47;;;8.90;;
3249;SDS011;1637;42.020;23.992;2023-07-20T05:28:47;10.10;;;7.63;;
3249;SDS011;1637;42.020;23.992;2023-07-20T05:31:14;17.93;;;9.33;;
3249;SDS011;1637;42.020;23.992;2023-07-20T05:33:42;12.23;;;7.97;;
3249;SDS011;1637;42.020;23.992;2023-07-20T05:36:09;12.13;;;8.47;;
3249;SDS011;1637;42.020;23.992;2023-07-20T05:38:36;15.00;;;9.50;;
3249;SDS011;1637;42.020;23.992;2023-07-20T05:41:03;12.07;;;9.07;;
3249;SDS011;1637;42.020;23.992;2023-07-20T05:43:30;11.70;;;8.83;;
3249;SDS011;1637;42.020;23.992;2023-07-20T05:45:56;14.10;;;8.10;;
3249;SDS011;1637;42.020;23.992;2023-07-20T05:48:23;12.80;;;8.90;;
3249;SDS011;1637;42.020;23.992;2023-07-20T05:50:51;13.10;;;8.23;;
3249;SDS011;1637;42.020;23.992;2023-07-20T05:53:18;24.30;;;8.40;;
3249;SDS011;1637;42.020;23.992;2023-07-20T05:55:51;10.87;;;8.10;;
3249;SDS011;1637;42.020;23.992;2023-07-20T05:58:18;11.53;;;7.93;;
3249;SDS011;1637;42.020;23.992;2023-07-20T06:00:47;11.60;;;7.67;;
3249;SDS011;1637;42.020;23.992;2023-07-20T06:03:14;9.10;;;7.87;;
3249;SDS011;1637;42.020;23.992;2023-07-20T06:05:41;21.60;;;8.10;;
3249;SDS011;1637;42.020;23.992;2023-07-20T06:08:09;16.13;;;8.43;;
3249;SDS011;1637;42.020;23.992;2023-07-20T06:10:36;9.70;;;8.00;;
3249;SDS011;1637;42.020;23.992;2023-07-20T06:13:03;13.63;;;8.33;;
3249;SDS011;1637;42.020;23.992;2023-07-20T06:15:31;21.20;;;8.43;;
3249;SDS011;1637;42.020;23.992;2023-07-20T06:17:59;18.30;;;8.00;;
3249;SDS011;1637;42.020;23.992;2023-07-20T06:20:26;9.83;;;6.40;;
3249;SDS011;1637;42.020;23.992;2023-07-20T06:22:53;16.40;;;8.50;;
3249;SDS011;1637;42.020;23.992;2023-07-20T06:25:21;18.10;;;8.40;;
3249;SDS011;1637;42.020;23.992;2023-07-20T06:27:49;16.10;;;7.80;;
3249;SDS011;1637;42.020;23.992;2023-07-20T06:30:16;13.23;;;7.77;;
3249;SDS011;1637;42.020;23.992;2023-07-20T06:32:43;15.73;;;7.80;;
3249;SDS011;1637;42.020;23.992;2023-07-20T06:35:10;12.65;;;7.97;;
3249;SDS011;1637;42.020;23.992;2023-07-20T06:37:37;14.40;;;7.68;;
3249;SDS011;1637;42.020;23.992;2023-07-20T06:40:04;8.02;;;6.85;;
3249;SDS011;1637;42.020;23.992;2023-07-20T06:42:35;12.68;;;7.90;;
3249;SDS011;1637;42.020;23.992;2023-07-20T06:45:02;14.75;;;7.78;;
3249;SDS011;1637;42.020;23.992;2023-07-20T06:47:29;14.05;;;7.68;;
3249;SDS011;1637;42.020;23.992;2023-07-20T06:49:56;21.08;;;7.78;;
3249;SDS011;1637;42.020;23.992;2023-07-20T06:52:23;10.50;;;7.25;;
3249;SDS011;1637;42.020;23.992;2023-07-20T06:54:50;13.75;;;7.00;;
3249;SDS011;1637;42.020;23.992;2023-07-20T06:57:17;7.95;;;7.10;;
3249;SDS011;1637;42.020;23.992;2023-07-20T06:59:45;8.50;;;7.32;;
3249;SDS011;1637;42.020;23.992;2023-07-20T07:02:12;13.05;;;7.38;;
3249;SDS011;1637;42.020;23.992;2023-07-20T07:04:39;10.45;;;7.63;;
3249;SDS011;1637;42.020;23.992;2023-07-20T07:07:06;15.02;;;9.20;;
3249;SDS011;1637;42.020;23.992;2023-07-20T07:09:33;12.93;;;8.60;;
3249;SDS011;1637;42.020;23.992;2023-07-20T07:11:59;19.80;;;7.63;;
3249;SDS011;1637;42.020;23.992;2023-07-20T07:14:26;14.43;;;8.10;;
3249;SDS011;1637;42.020;23.992;2023-07-20T07:16:54;17.35;;;8.50;;
3249;SDS011;1637;42.020;23.992;2023-07-20T07:19:21;12.02;;;7.88;;
3249;SDS011;1637;42.020;23.992;2023-07-20T07:21:48;17.17;;;8.95;;
3249;SDS011;1637;42.020;23.992;2023-07-20T07:24:15;15.13;;;8.02;;
3249;SDS011;1637;42.020;23.992;2023-07-20T07:26:42;16.92;;;10.10;;
3249;SDS011;1637;42.020;23.992;2023-07-20T07:29:09;14.13;;;9.77;;
3249;SDS011;1637;42.020;23.992;2023-07-20T07:31:36;20.33;;;11.30;;
3249;SDS011;1637;42.020;23.992;2023-07-20T07:34:04;11.00;;;7.10;;
3249;SDS011;1637;42.020;23.992;2023-07-20T07:36:31;10.82;;;7.35;;
3249;SDS011;1637;42.020;23.992;2023-07-20T07:38:59;14.60;;;8.70;;
3249;SDS011;1637;42.020;23.992;2023-07-20T07:41:26;12.80;;;7.18;;
3249;SDS011;1637;42.020;23.992;2023-07-20T07:43:52;12.48;;;6.95;;
3249;SDS011;1637;42.020;23.992;2023-07-20T07:46:19;10.13;;;6.63;;
3249;SDS011;1637;42.020;23.992;2023-07-20T07:48:46;7.72;;;6.35;;
3249;SDS011;1637;42.020;23.992;2023-07-20T07:51:14;11.65;;;6.72;;
3249;SDS011;1637;42.020;23.992;2023-07-20T07:53:41;7.05;;;5.22;;
3249;SDS011;1637;42.020;23.992;2023-07-20T07:56:09;8.63;;;6.70;;
3249;SDS011;1637;42.020;23.992;2023-07-20T07:58:35;7.30;;;5.65;;
3249;SDS011;1637;42.020;23.992;2023-07-20T08:01:02;10.10;;;6.63;;
3249;SDS011;1637;42.020;23.992;2023-07-20T08:03:29;12.45;;;8.00;;
3249;SDS011;1637;42.020;23.992;2023-07-20T08:05:56;16.60;;;7.40;;
3249;SDS011;1637;42.020;23.992;2023-07-20T08:08:25;8.25;;;7.25;;
3249;SDS011;1637;42.020;23.992;2023-07-20T08:10:52;7.05;;;6.35;;
3249;SDS011;1637;42.020;23.992;2023-07-20T08:13:20;13.15;;;11.02;;
3249;SDS011;1637;42.020;23.992;2023-07-20T08:15:49;13.95;;;8.50;;
3249;SDS011;1637;42.020;23.992;2023-07-20T08:18:16;14.23;;;7.85;;
3249;SDS011;1637;42.020;23.992;2023-07-20T08:20:43;14.10;;;7.90;;
3249;SDS011;1637;42.020;23.992;2023-07-20T08:23:10;12.73;;;7.97;;
3249;SDS011;1637;42.020;23.992;2023-07-20T08:25:38;25.38;;;8.77;;
3249;SDS011;1637;42.020;23.992;2023-07-20T08:28:09;13.30;;;8.63;;
3249;SDS011;1637;42.020;23.992;2023-07-20T08:30:42;10.88;;;7.10;;
3249;SDS011;1637;42.020;23.992;2023-07-20T08:33:10;13.63;;;8.77;;
3249;SDS011;1637;42.020;23.992;2023-07-20T08:35:37;8.73;;;7.63;;
3249;SDS011;1637;42.020;23.992;2023-07-20T08:38:04;17.20;;;8.18;;
3249;SDS011;1637;42.020;23.992;2023-07-20T08:40:31;16.67;;;9.90;;
3249;SDS011;1637;42.020;23.992;2023-07-20T08:42:59;22.85;;;9.73;;
3249;SDS011;1637;42.020;23.992;2023-07-20T08:45:29;13.38;;;7.85;;
3249;SDS011;1637;42.020;23.992;2023-07-20T08:47:59;11.50;;;6.95;;
3249;SDS011;1637;42.020;23.992;2023-07-20T08:50:29;16.23;;;8.70;;
3249;SDS011;1637;42.020;23.992;2023-07-20T08:52:57;14.85;;;7.80;;
3249;SDS011;1637;42.020;23.992;2023-07-20T08:55:25;14.85;;;7.88;;
3249;SDS011;1637;42.020;23.992;2023-07-20T08:57:53;13.73;;;7.55;;
3249;SDS011;1637;42.020;23.992;2023-07-20T09:00:23;10.13;;;8.10;;
3249;SDS011;1637;42.020;23.992;2023-07-20T09:02:53;9.90;;;7.40;;
3249;SDS011;1637;42.020;23.992;2023-07-20T09:05:20;11.32;;;7.22;;
3249;SDS011;1637;42.020;23.992;2023-07-20T09:07:50;11.30;;;6.88;;
3249;SDS011;1637;42.020;23.992;2023-07-20T09:10:17;10.45;;;6.50;;
3249;SDS011;1637;42.020;23.992;2023-07-20T09:12:46;8.43;;;6.70;;
3249;SDS011;1637;42.020;23.992;2023-07-20T09:15:12;10.57;;;7.97;;
3249;SDS011;1637;42.020;23.992;2023-07-20T09:17:41;8.85;;;5.93;;
3249;SDS011;1637;42.020;23.992;2023-07-20T09:20:12;7.07;;;6.32;;
3249;SDS011;1637;42.020;23.992;2023-07-20T09:22:42;13.85;;;6.07;;
3249;SDS011;1637;42.020;23.992;2023-07-20T09:25:10;11.32;;;7.07;;
3249;SDS011;1637;42.020;23.992;2023-07-20T09:27:39;12.05;;;6.63;;
3249;SDS011;1637;42.020;23.992;2023-07-20T09:30:07;13.55;;;6.45;;
3249;SDS011;1637;42.020;23.992;2023-07-20T09:32:41;13.20;;;6.72;;
3249;SDS011;1637;42.020;23.992;2023-07-20T09:35:12;9.02;;;5.72;;
3249;SDS011;1637;42.020;23.992;2023-07-20T09:37:41;11.00;;;6.10;;
3249;SDS011;1637;42.020;23.992;2023-07-20T09:40:14;9.82;;;5.78;;
3249;SDS011;1637;42.020;23.992;2023-07-20T09:42:42;9.27;;;6.07;;
3249;SDS011;1637;42.020;23.992;2023-07-20T09:45:09;6.15;;;5.53;;
3249;SDS011;1637;42.020;23.992;2023-07-20T09:47:37;7.60;;;5.40;;
3249;SDS011;1637;42.020;23.992;2023-07-20T09:50:06;6.10;;;5.25;;
3249;SDS011;1637;42.020;23.992;2023-07-20T09:52:37;11.57;;;6.28;;
3249;SDS011;1637;42.020;23.992;2023-07-20T09:55:05;10.02;;;6.45;;
3249;SDS011;1637;42.020;23.992;2023-07-20T09:57:33;7.75;;;5.93;;
3249;SDS011;1637;42.020;23.992;2023-07-20T10:00:01;6.72;;;5.35;;
3249;SDS011;1637;42.020;23.992;2023-07-20T10:02:33;9.32;;;5.38;;
3249;SDS011;1637;42.020;23.992;2023-07-20T10:05:03;8.82;;;4.97;;
3249;SDS011;1637;42.020;23.992;2023-07-20T10:07:32;7.47;;;4.60;;
3249;SDS011;1637;42.020;23.992;2023-07-20T10:10:02;9.82;;;5.93;;
3249;SDS011;1637;42.020;23.992;2023-07-20T10:12:30;5.15;;;4.65;;
3249;SDS011;1637;42.020;23.992;2023-07-20T10:15:06;8.30;;;5.70;;
3249;SDS011;1637;42.020;23.992;2023-07-20T10:17:40;7.82;;;4.47;;
3249;SDS011;1637;42.020;23.992;2023-07-20T10:20:15;5.00;;;4.47;;
3249;SDS011;1637;42.020;23.992;2023-07-20T10:22:46;12.85;;;4.63;;
3249;SDS011;1637;42.020;23.992;2023-07-20T10:25:15;10.02;;;4.82;;
3249;SDS011;1637;42.020;23.992;2023-07-20T10:27:45;12.43;;;5.13;;
3249;SDS011;1637;42.020;23.992;2023-07-20T10:30:13;10.75;;;5.18;;
3249;SDS011;1637;42.020;23.992;2023-07-20T10:32:40;13.40;;;5.57;;
3249;SDS011;1637;42.020;23.992;2023-07-20T10:35:12;8.07;;;5.35;;
3249;SDS011;1637;42.020;23.992;2023-07-20T10:37:47;15.23;;;5.63;;
3249;SDS011;1637;42.020;23.992;2023-07-20T10:40:28;6.20;;;4.55;;
3249;SDS011;1637;42.020;23.992;2023-07-20T10:42:57;9.07;;;5.63;;
3249;SDS011;1637;42.020;23.992;2023-07-20T10:45:34;10.68;;;5.55;;
3249;SDS011;1637;42.020;23.992;2023-07-20T10:48:05;11.73;;;5.03;;
3249;SDS011;1637;42.020;23.992;2023-07-20T10:50:33;8.50;;;4.95;;
3249;SDS011;1637;42.020;23.992;2023-07-20T10:53:11;9.55;;;5.72;;
3249;SDS011;1637;42.020;23.992;2023-07-20T10:55:39;6.07;;;4.97;;
3249;SDS011;1637;42.020;23.992;2023-07-20T10:58:07;7.40;;;5.13;;
3249;SDS011;1637;42.020;23.992;2023-07-20T11:00:35;10.80;;;5.95;;
3249;SDS011;1637;42.020;23.992;2023-07-20T11:03:02;11.80;;;5.47;;
3249;SDS011;1637;42.020;23.992;2023-07-20T11:05:32;11.82;;;5.88;;
3249;SDS011;1637;42.020;23.992;2023-07-20T11:08:00;10.30;;;5.35;;
3249;SDS011;1637;42.020;23.992;2023-07-20T11:10:30;16.42;;;5.32;;
3249;SDS011;1637;42.020;23.992;2023-07-20T11:15:45;14.43;;;5.28;;
3249;SDS011;1637;42.020;23.992;2023-07-20T11:18:13;8.57;;;4.53;;
3249;SDS011;1637;42.020;23.992;2023-07-20T11:20:40;6.63;;;5.00;;
3249;SDS011;1637;42.020;23.992;2023-07-20T11:23:08;8.85;;;4.47;;
3249;SDS011;1637;42.020;23.992;2023-07-20T11:25:37;7.60;;;4.03;;
3249;SDS011;1637;42.020;23.992;2023-07-20T11:28:08;9.80;;;4.47;;
3249;SDS011;1637;42.020;23.992;2023-07-20T11:30:36;10.55;;;4.13;;
3249;SDS011;1637;42.020;23.992;2023-07-20T11:33:03;13.40;;;4.90;;
3249;SDS011;1637;42.020;23.992;2023-07-20T11:35:30;8.80;;;3.92;;
3249;SDS011;1637;42.020;23.992;2023-07-20T11:38:01;7.65;;;3.72;;
3249;SDS011;1637;42.020;23.992;2023-07-20T11:40:28;6.57;;;3.83;;
3249;SDS011;1637;42.020;23.992;2023-07-20T11:42:56;6.53;;;3.30;;
3249;SDS011;1637;42.020;23.992;2023-07-20T11:45:23;8.48;;;3.67;;
3249;SDS011;1637;42.020;23.992;2023-07-20T11:47:52;11.65;;;4.28;;
3249;SDS011;1637;42.020;23.992;2023-07-20T11:50:19;10.48;;;4.65;;
3249;SDS011;1637;42.020;23.992;2023-07-20T11:52:46;11.18;;;4.53;;
3249;SDS011;1637;42.020;23.992;2023-07-20T11:55:13;19.10;;;5.05;;
3249;SDS011;1637;42.020;23.992;2023-07-20T11:57:39;7.28;;;4.68;;
3249;SDS011;1637;42.020;23.992;2023-07-20T12:00:09;10.60;;;5.22;;
3249;SDS011;1637;42.020;23.992;2023-07-20T12:02:37;13.57;;;4.30;;
3249;SDS011;1637;42.020;23.992;2023-07-20T12:05:05;10.75;;;4.18;;
3249;SDS011;1637;42.020;23.992;2023-07-20T12:07:34;7.32;;;3.67;;
3249;SDS011;1637;42.020;23.992;2023-07-20T12:10:05;7.88;;;3.38;;
3249;SDS011;1637;42.020;23.992;2023-07-20T12:12:33;10.88;;;5.07;;
3249;SDS011;1637;42.020;23.992;2023-07-20T12:17:46;9.30;;;4.00;;
3249;SDS011;1637;42.020;23.992;2023-07-20T12:20:24;7.97;;;4.60;;
3249;SDS011;1637;42.020;23.992;2023-07-20T12:22:52;8.13;;;4.30;;
3249;SDS011;1637;42.020;23.992;2023-07-20T12:25:19;9.00;;;5.20;;
3249;SDS011;1637;42.020;23.992;2023-07-20T12:27:47;8.15;;;5.07;;
3249;SDS011;1637;42.020;23.992;2023-07-20T12:30:14;13.75;;;10.10;;
3249;SDS011;1637;42.020;23.992;2023-07-20T12:32:42;12.38;;;5.90;;
3249;SDS011;1637;42.020;23.992;2023-07-20T12:35:09;16.75;;;14.85;;
3249;SDS011;1637;42.020;23.992;2023-07-20T12:37:36;17.60;;;6.50;;
3249;SDS011;1637;42.020;23.992;2023-07-20T12:40:03;5.47;;;4.28;;
3249;SDS011;1637;42.020;23.992;2023-07-20T12:42:36;11.63;;;4.55;;
3249;SDS011;1637;42.020;23.992;2023-07-20T12:45:04;9.32;;;4.63;;
3249;SDS011;1637;42.020;23.992;2023-07-20T12:47:32;10.82;;;4.50;;
3249;SDS011;1637;42.020;23.992;2023-07-20T12:50:00;10.55;;;5.18;;
3249;SDS011;1637;42.020;23.992;2023-07-20T12:52:29;9.70;;;4.93;;
3249;SDS011;1637;42.020;23.992;2023-07-20T12:54:56;7.95;;;5.13;;
3249;SDS011;1637;42.020;23.992;2023-07-20T12:57:23;19.02;;;4.95;;
3249;SDS011;1637;42.020;23.992;2023-07-20T12:59:50;6.75;;;4.72;;
3249;SDS011;1637;42.020;23.992;2023-07-20T13:02:17;11.52;;;5.35;;
3249;SDS011;1637;42.020;23.992;2023-07-20T13:04:44;10.38;;;4.57;;
3249;SDS011;1637;42.020;23.992;2023-07-20T13:07:12;16.58;;;6.13;;
3249;SDS011;1637;42.020;23.992;2023-07-20T13:09:39;18.17;;;8.00;;
3249;SDS011;1637;42.020;23.992;2023-07-20T13:12:06;9.70;;;4.80;;
3249;SDS011;1637;42.020;23.992;2023-07-20T13:14:33;8.38;;;5.38;;
3249;SDS011;1637;42.020;23.992;2023-07-20T13:17:00;9.85;;;5.13;;
3249;SDS011;1637;42.020;23.992;2023-07-20T13:19:27;7.95;;;5.40;;
3249;SDS011;1637;42.020;23.992;2023-07-20T13:21:53;11.40;;;5.32;;
3249;SDS011;1637;42.020;23.992;2023-07-20T13:24:22;12.85;;;5.57;;
3249;SDS011;1637;42.020;23.992;2023-07-20T13:26:49;8.25;;;4.88;;
3249;SDS011;1637;42.020;23.992;2023-07-20T13:29:16;8.63;;;5.00;;
3249;SDS011;1637;42.020;23.992;2023-07-20T13:31:43;13.65;;;5.03;;
3249;SDS011;1637;42.020;23.992;2023-07-20T13:34:11;10.63;;;4.50;;
3249;SDS011;1637;42.020;23.992;2023-07-20T13:36:38;9.98;;;4.68;;
3249;SDS011;1637;42.020;23.992;2023-07-20T13:39:04;8.18;;;4.90;;
3249;SDS011;1637;42.020;23.992;2023-07-20T13:41:33;9.75;;;5.10;;
3249;SDS011;1637;42.020;23.992;2023-07-20T13:43:59;9.90;;;5.10;;
3249;SDS011;1637;42.020;23.992;2023-07-20T13:46:26;5.47;;;4.80;;
3249;SDS011;1637;42.020;23.992;2023-07-20T13:48:53;12.85;;;4.80;;
3249;SDS011;1637;42.020;23.992;2023-07-20T13:51:19;14.38;;;4.68;;
3249;SDS011;1637;42.020;23.992;2023-07-20T13:53:47;13.48;;;5.53;;
3249;SDS011;1637;42.020;23.992;2023-07-20T13:56:14;12.10;;;5.05;;
3249;SDS011;1637;42.020;23.992;2023-07-20T13:58:42;9.95;;;4.28;;
3249;SDS011;1637;42.020;23.992;2023-07-20T14:01:09;10.20;;;5.05;;
3249;SDS011;1637;42.020;23.992;2023-07-20T14:03:36;7.43;;;4.47;;
3249;SDS011;1637;42.020;23.992;2023-07-20T14:06:03;8.68;;;4.85;;
3249;SDS011;1637;42.020;23.992;2023-07-20T14:08:30;15.52;;;5.82;;
3249;SDS011;1637;42.020;23.992;2023-07-20T14:10:56;9.10;;;4.70;;
3249;SDS011;1637;42.020;23.992;2023-07-20T14:13:23;8.35;;;4.43;;
3249;SDS011;1637;42.020;23.992;2023-07-20T14:15:51;14.02;;;4.85;;
3249;SDS011;1637;42.020;23.992;2023-07-20T14:18:18;8.38;;;5.55;;
3249;SDS011;1637;42.020;23.992;2023-07-20T14:20:45;13.70;;;4.88;;
3249;SDS011;1637;42.020;23.992;2023-07-20T14:23:12;5.55;;;4.00;;
3249;SDS011;1637;42.020;23.992;2023-07-20T14:25:38;6.03;;;4.88;;
3249;SDS011;1637;42.020;23.992;2023-07-20T14:28:05;12.93;;;5.30;;
3249;SDS011;1637;42.020;23.992;2023-07-20T14:30:32;13.30;;;4.70;;
3249;SDS011;1637;42.020;23.992;2023-07-20T14:33:00;13.40;;;4.90;;
3249;SDS011;1637;42.020;23.992;2023-07-20T14:35:27;8.20;;;4.15;;
3249;SDS011;1637;42.020;23.992;2023-07-20T14:37:53;10.20;;;4.45;;
3249;SDS011;1637;42.020;23.992;2023-07-20T14:40:20;11.18;;;4.68;;
3249;SDS011;1637;42.020;23.992;2023-07-20T14:42:47;7.05;;;3.95;;
3249;SDS011;1637;42.020;23.992;2023-07-20T14:45:14;5.72;;;4.53;;
3249;SDS011;1637;42.020;23.992;2023-07-20T14:47:41;9.32;;;4.18;;
3249;SDS011;1637;42.020;23.992;2023-07-20T14:50:09;11.32;;;4.70;;
3249;SDS011;1637;42.020;23.992;2023-07-20T14:52:36;14.05;;;4.90;;
3249;SDS011;1637;42.020;23.992;2023-07-20T14:55:04;19.88;;;4.88;;
3249;SDS011;1637;42.020;23.992;2023-07-20T14:57:31;7.80;;;4.82;;
3249;SDS011;1637;42.020;23.992;2023-07-20T14:59:58;9.23;;;4.10;;
3249;SDS011;1637;42.020;23.992;2023-07-20T15:02:24;9.68;;;4.10;;